Pagrindinis puslapis
METAR-TAF:

METAR-TAF

Oro uostai :

Nalčikas, Rusija

platuma: 43-30-46N, ilguma: 043-38-12E, Aukštis: 445 m

Dabartinis oras

Ataskaita buvo paskelbta 49 minutes, ne 23:00 UTC
Vėjas 6 kt iš Pietų
Temperatūra 15°C
Drėgmė 77%
Slėgis 1019 hPa
Matomumas 10 km arba daugiau

METAR: URMN 052300Z 19003MPS 9999 NSC 15/11 Q1019 R24/////// NOSIG RMK QFE728

Laikas: 03:49 (23:49 UTC)

Prognozė

Ataskaita buvo paskelbta 49 minutes, ne 23:00 UTC
Prognozė galioja nuo 06 metu 00 UTC su 06 metu 09 UTC
Vėjas 6 kt iš Vakarų/Pietvakarių
Matomumas 10 km arba daugiau
Išsisklaidę debesys ne aukštis 2000 ft

TAF: URMN 052300Z 0600/0609 24003MPS 9999 SCT020

Orai ataskaitas ir orų prognozės (METAR, TAF).

turimą stotys yra geltonos ir raudonos taškus žemėlapyje.

Perkelti pele per norėdami pamatyti stoties vardą.

Tada spustelėkite, norėdami matyti oro stebėjimo ir prognozės.

Norėdami pakeisti žemėlapį: spustelėkite ant žalios mygtukų su juodo kryžiaus žemyn,; žalią mygtuką su brūkšneliu, jei norite nutolinti; arba žalių rodyklių gretimoms žemėlapius.


METAR-TAF: